createdAt,value
2022-11-10T07:49:20.152Z,10.95
2022-11-10T07:50:19.915Z,11.13
2022-11-10T07:51:20.808Z,11.19
2022-11-10T07:52:19.928Z,11.23
2022-11-10T07:53:21.832Z,11.31
2022-11-10T07:55:45.236Z,11.40
2022-11-10T07:58:18.866Z,11.45
2022-11-10T08:01:21.444Z,11.62
2022-11-10T08:02:29.151Z,11.62
2022-11-10T08:03:30.038Z,11.61
2022-11-10T08:04:30.016Z,11.61
2022-11-10T08:05:29.959Z,11.62
2022-11-10T08:06:33.511Z,11.70
2022-11-10T08:08:14.523Z,11.70
2022-11-10T08:11:37.210Z,11.82
2022-11-10T08:12:45.259Z,11.76
2022-11-10T08:14:47.564Z,11.73
2022-11-10T08:16:57.761Z,11.85
2022-11-10T08:17:57.909Z,11.99
2022-11-10T08:19:06.468Z,12.00
2022-11-10T08:21:08.736Z,12.08
2022-11-10T08:22:18.365Z,12.11
2022-11-10T08:25:33.206Z,12.21
2022-11-10T08:27:40.961Z,12.35
2022-11-10T08:29:52.188Z,12.30
2022-11-10T08:30:52.085Z,12.46
2022-11-10T08:33:03.454Z,12.36
2022-11-10T08:34:11.010Z,12.43
2022-11-10T08:36:13.830Z,12.46
2022-11-10T08:37:13.710Z,12.33
2022-11-10T08:38:22.374Z,12.32
2022-11-10T08:40:25.123Z,12.22
2022-11-10T08:41:25.040Z,12.28
2022-11-10T08:42:33.919Z,12.30
2022-11-10T08:44:35.570Z,12.36
2022-11-10T08:45:35.369Z,12.38
2022-11-10T08:46:35.492Z,12.50
2022-11-10T08:48:46.757Z,12.43
2022-11-10T08:49:57.329Z,12.47
2022-11-10T08:50:55.236Z,12.29
2022-11-10T08:52:58.029Z,12.35
2022-11-10T08:55:08.313Z,12.43
2022-11-10T08:56:08.285Z,12.43
2022-11-10T08:57:08.237Z,12.48
2022-11-10T08:58:08.224Z,12.58
2022-11-10T08:59:08.196Z,12.44
2022-11-10T09:00:08.248Z,12.48
2022-11-10T09:01:15.845Z,12.43
2022-11-10T09:02:08.215Z,12.46
2022-11-10T09:03:08.293Z,12.38
2022-11-10T09:04:08.263Z,12.50
2022-11-10T09:05:08.144Z,12.55
2022-11-10T09:06:08.121Z,12.48
2022-11-10T09:07:08.180Z,12.50
2022-11-10T09:08:08.130Z,12.59
2022-11-10T09:09:08.091Z,12.53
2022-11-10T09:10:08.414Z,12.59
2022-11-10T09:11:08.074Z,12.61
2022-11-10T09:12:08.113Z,12.63
2022-11-10T09:13:08.045Z,12.65
2022-11-10T09:14:08.051Z,12.65
2022-11-10T09:15:08.028Z,12.66
2022-11-10T09:16:08.032Z,12.65
2022-11-10T09:17:08.001Z,12.62
2022-11-10T09:18:08.007Z,12.69
2022-11-10T09:19:07.984Z,12.72
2022-11-10T09:20:08.110Z,12.71
2022-11-10T09:21:07.974Z,12.71
2022-11-10T09:22:16.192Z,12.77
2022-11-10T09:23:16.559Z,12.61
2022-11-10T09:24:17.572Z,12.77
2022-11-10T09:25:07.998Z,12.71
2022-11-10T09:26:16.547Z,12.69
2022-11-10T09:27:15.526Z,12.77
2022-11-10T09:28:07.964Z,12.72
2022-11-10T09:29:07.923Z,12.83
2022-11-10T09:30:10.641Z,12.87
2022-11-10T09:31:08.929Z,12.96
2022-11-10T09:32:15.453Z,13.01
2022-11-10T09:33:08.118Z,13.05
2022-11-10T09:34:07.855Z,13.09
2022-11-10T09:35:16.712Z,13.16
2022-11-10T09:36:07.866Z,13.23
2022-11-10T09:37:07.872Z,13.39
2022-11-10T09:38:15.376Z,13.40
2022-11-10T09:39:15.434Z,13.49
2022-11-10T09:40:12.641Z,13.53
2022-11-10T09:41:08.804Z,13.39
2022-11-10T09:42:07.740Z,13.45
2022-11-10T09:43:07.778Z,13.63
2022-11-10T09:44:07.738Z,13.57
2022-11-10T09:45:07.700Z,13.60
2022-11-10T09:46:07.703Z,13.65
2022-11-10T09:47:07.682Z,13.51
2022-11-10T09:48:07.662Z,13.40
2022-11-10T09:49:07.682Z,13.42
2022-11-10T09:50:07.648Z,13.36
2022-11-10T09:51:07.650Z,13.35
2022-11-10T09:52:15.225Z,13.32
2022-11-10T09:53:16.197Z,13.24
2022-11-10T09:55:17.981Z,13.29
2022-11-10T09:57:28.349Z,13.32
2022-11-10T09:58:37.981Z,13.42
2022-11-10T09:59:28.290Z,13.43
2022-11-10T10:00:35.842Z,13.55
2022-11-10T10:01:37.039Z,13.57
2022-11-10T10:02:35.874Z,13.45
2022-11-10T10:04:51.884Z,13.45
2022-11-10T10:07:05.325Z,13.51
2022-11-10T10:07:58.162Z,13.54
2022-11-10T10:08:56.603Z,13.47
2022-11-10T10:09:56.440Z,13.51
2022-11-10T10:10:47.893Z,13.45
2022-11-10T10:11:56.663Z,13.39
2022-11-10T10:12:55.395Z,13.43
2022-11-10T10:13:47.834Z,13.46
2022-11-10T10:14:47.897Z,13.51
2022-11-10T10:15:55.407Z,13.58
2022-11-10T10:16:47.821Z,13.55
2022-11-10T10:17:56.353Z,13.57
2022-11-10T10:18:55.350Z,13.64
2022-11-10T10:19:55.297Z,13.73
2022-11-10T10:20:55.609Z,13.90
2022-11-10T10:21:47.780Z,13.75
2022-11-10T10:22:56.401Z,13.85
2022-11-10T10:24:09.445Z,13.80
2022-11-10T10:24:48.781Z,13.73
2022-11-10T10:25:55.313Z,13.67
2022-11-10T10:26:47.752Z,13.72
2022-11-10T10:27:55.246Z,13.61
2022-11-10T10:28:56.531Z,13.63
2022-11-10T10:29:55.225Z,13.57
2022-11-10T10:30:56.285Z,13.55
2022-11-10T10:31:55.197Z,13.65
2022-11-10T10:33:58.047Z,13.85
2022-11-10T10:35:05.572Z,13.90
2022-11-10T10:36:05.524Z,13.98
2022-11-10T10:38:09.367Z,14.00
2022-11-10T10:39:18.015Z,14.08
2022-11-10T10:40:16.853Z,14.05
2022-11-10T10:41:09.312Z,14.16
2022-11-10T10:42:09.275Z,14.27
2022-11-10T10:43:16.837Z,14.30
2022-11-10T10:44:19.072Z,14.28
2022-11-10T10:45:09.282Z,14.23
2022-11-10T10:46:09.282Z,14.33
2022-11-10T10:47:16.801Z,14.27
2022-11-10T10:50:34.892Z,14.16
2022-11-10T10:51:34.790Z,14.36
2022-11-10T10:52:34.740Z,14.34
2022-11-10T10:53:42.376Z,14.40
2022-11-10T10:54:34.830Z,14.37
2022-11-10T10:55:34.748Z,14.36
2022-11-10T10:56:34.710Z,14.40
2022-11-10T10:57:42.238Z,14.34
2022-11-10T10:58:34.727Z,14.33
2022-11-10T10:59:34.674Z,14.37
2022-11-10T11:00:34.672Z,14.49
2022-11-10T11:01:34.739Z,14.51
2022-11-10T11:02:43.271Z,14.53
2022-11-10T11:04:45.031Z,14.49
2022-11-10T11:05:45.065Z,14.44
2022-11-10T11:06:54.856Z,14.49
2022-11-10T11:07:45.000Z,14.49
2022-11-10T11:08:58.188Z,14.49
2022-11-10T11:10:55.350Z,14.46
2022-11-10T11:12:03.983Z,14.53
2022-11-10T11:13:02.823Z,14.69
2022-11-10T11:14:03.131Z,14.70
2022-11-10T11:15:03.833Z,14.71
2022-11-10T11:16:03.819Z,14.83
2022-11-10T11:17:05.151Z,14.87
2022-11-10T11:18:02.817Z,14.92
2022-11-10T11:19:03.460Z,14.92
2022-11-10T11:21:06.752Z,14.85
2022-11-10T11:22:16.256Z,14.64
2022-11-10T11:24:16.865Z,14.70
2022-11-10T11:26:27.189Z,14.70
2022-11-10T11:27:34.721Z,14.70
2022-11-10T11:28:36.904Z,14.77
2022-11-10T11:29:34.711Z,14.83
2022-11-10T11:30:34.713Z,14.89
2022-11-10T11:31:27.091Z,14.85
2022-11-10T11:32:27.131Z,15.01
2022-11-10T11:33:27.047Z,14.96
2022-11-10T11:34:36.037Z,15.10
2022-11-10T11:35:34.594Z,15.07
2022-11-10T11:37:37.422Z,15.22
2022-11-10T11:39:46.745Z,15.17
2022-11-10T11:40:54.261Z,15.27
2022-11-10T11:41:46.775Z,15.33
2022-11-10T11:42:54.259Z,15.43
2022-11-10T11:43:55.252Z,15.59
2022-11-10T11:44:46.730Z,15.59
2022-11-10T11:45:54.154Z,15.62
2022-11-10T11:46:54.195Z,15.65
2022-11-10T11:47:55.271Z,15.66
2022-11-10T11:48:56.613Z,15.73
2022-11-10T11:49:54.168Z,15.72
2022-11-10T11:50:54.193Z,15.70
2022-11-10T11:51:54.168Z,15.59
2022-11-10T11:52:57.302Z,15.62
2022-11-10T11:53:54.266Z,15.73
2022-11-10T11:55:57.929Z,15.65
2022-11-10T11:56:58.124Z,15.62
2022-11-10T11:58:06.401Z,15.58
2022-11-10T11:59:05.396Z,15.50
2022-11-10T12:00:05.391Z,15.51
2022-11-10T12:00:57.934Z,15.45
2022-11-10T12:02:06.674Z,15.44
2022-11-10T12:02:57.844Z,15.43
2022-11-10T12:03:57.783Z,15.62
2022-11-10T12:04:57.746Z,15.66
2022-11-10T12:06:05.307Z,15.72
2022-11-10T12:06:57.847Z,15.78
2022-11-10T12:07:57.806Z,15.80
2022-11-10T12:09:05.950Z,15.76
2022-11-10T12:10:05.290Z,15.63
2022-11-10T12:11:05.325Z,15.62
2022-11-10T14:48:45.146Z,13.79
2022-11-10T14:49:52.638Z,13.85
2022-11-10T14:50:54.753Z,13.68
2022-11-10T14:51:45.056Z,13.72
2022-11-10T14:52:52.581Z,13.67
2022-11-10T14:53:52.573Z,13.67
2022-11-10T14:54:52.574Z,13.57
2022-11-10T14:55:45.015Z,13.63
2022-11-10T14:56:44.986Z,13.60
2022-11-10T14:57:52.516Z,13.55
2022-11-10T14:58:44.944Z,13.55
2022-11-10T14:59:44.931Z,13.51
2022-11-10T15:00:52.498Z,13.47
2022-11-10T15:01:53.993Z,13.42
2022-11-10T15:02:52.469Z,13.55
2022-11-10T15:03:53.551Z,13.43
2022-11-10T15:04:52.480Z,13.47
2022-11-10T15:05:44.908Z,13.38
2022-11-10T15:06:52.498Z,13.45
2022-11-10T15:07:44.913Z,13.40
2022-11-10T15:08:44.835Z,13.40
2022-11-10T15:09:52.400Z,13.27
2022-11-10T15:10:52.387Z,13.23
2022-11-10T15:11:52.367Z,13.17
2022-11-10T15:12:44.817Z,13.19
2022-11-10T15:13:44.802Z,13.16
2022-11-10T15:14:44.767Z,13.08
2022-11-10T15:15:44.809Z,12.98
2022-11-10T15:16:52.342Z,12.84
2022-11-10T15:17:53.832Z,12.77
2022-11-10T15:18:44.768Z,12.73
2022-11-10T15:19:52.333Z,12.65
2022-11-10T15:20:44.787Z,12.72
2022-11-10T15:21:53.370Z,12.59
2022-11-10T15:22:52.268Z,12.53
2022-11-10T15:23:44.692Z,12.50
2022-11-10T15:24:53.289Z,12.43
2022-11-10T15:26:55.050Z,12.35
2022-11-10T15:28:02.596Z,12.22
2022-11-10T15:29:03.766Z,12.10
2022-11-10T15:29:55.000Z,12.11
2022-11-10T15:30:55.000Z,12.08
2022-11-10T15:33:05.295Z,11.93
2022-11-10T15:34:13.952Z,12.03
2022-11-10T15:35:12.881Z,11.95
2022-11-10T15:36:05.271Z,11.89
2022-11-10T15:37:05.237Z,11.96
2022-11-10T15:38:05.174Z,11.99
2022-11-10T15:39:05.204Z,11.88
2022-11-10T15:40:05.204Z,11.80
2022-11-10T15:41:05.137Z,11.76
2022-11-10T15:42:05.129Z,11.67
2022-11-10T15:43:05.107Z,11.71
2022-11-10T15:44:13.020Z,11.55
2022-11-10T15:45:05.171Z,11.61
2022-11-10T15:46:17.791Z,11.55
2022-11-10T15:48:15.527Z,11.46
2022-11-10T15:49:23.053Z,11.38
2022-11-10T15:50:26.229Z,11.43
2022-11-10T15:51:15.475Z,11.37
2022-11-10T15:53:25.772Z,11.34
2022-11-10T15:54:25.718Z,11.28
2022-11-10T15:55:25.695Z,11.18
2022-11-10T15:56:25.738Z,11.22
2022-11-10T15:57:33.331Z,11.20
2022-11-10T15:58:34.240Z,11.27
2022-11-10T15:59:33.272Z,11.19
2022-11-10T16:00:35.536Z,11.20
2022-11-10T16:01:25.751Z,11.20
2022-11-10T16:02:33.243Z,11.16
2022-11-10T16:03:25.675Z,11.20
2022-11-10T16:04:33.213Z,11.13
2022-11-10T16:05:33.262Z,11.16
2022-11-10T16:06:35.705Z,11.15
2022-11-10T16:07:33.160Z,11.03
2022-11-10T16:08:34.231Z,10.91
2022-11-10T16:09:33.131Z,10.91
2022-11-10T16:10:33.122Z,10.98
2022-11-10T16:11:33.134Z,11.00
2022-11-10T16:12:35.367Z,10.93
2022-11-10T16:13:33.082Z,10.94
2022-11-10T16:14:25.539Z,11.00
2022-11-10T16:15:25.532Z,11.09
2022-11-10T16:17:35.903Z,11.04
2022-11-10T16:18:44.045Z,10.90
2022-11-10T16:19:35.838Z,10.90
2022-11-10T16:20:35.872Z,10.83
2022-11-10T16:21:35.797Z,10.97
2022-11-10T16:22:35.741Z,10.80
2022-11-10T16:23:35.765Z,10.87
2022-11-10T16:24:35.718Z,10.90
2022-11-10T16:25:35.706Z,10.72
2022-11-10T16:26:35.703Z,10.65
2022-11-10T16:27:35.684Z,10.70
2022-11-10T16:28:44.535Z,10.62
2022-11-10T16:29:43.251Z,10.67
2022-11-10T16:30:43.247Z,10.68
2022-11-10T16:31:43.227Z,10.64
2022-11-10T16:32:43.244Z,10.62
2022-11-10T16:33:35.698Z,10.67
2022-11-10T16:34:35.704Z,10.65
2022-11-10T16:35:35.616Z,10.64
2022-11-10T16:36:35.703Z,10.62
2022-11-10T16:37:35.574Z,10.60
2022-11-10T16:38:35.569Z,10.49
2022-11-10T16:39:35.564Z,10.42
2022-11-10T16:40:35.590Z,10.46
2022-11-10T16:41:35.530Z,10.31
2022-11-10T16:42:35.534Z,10.38
2022-11-10T16:43:35.511Z,10.36
2022-11-10T16:44:38.759Z,10.38
2022-11-10T16:45:36.504Z,10.38
2022-11-10T16:46:35.491Z,10.30
2022-11-10T16:47:35.466Z,10.26
2022-11-10T16:48:35.497Z,10.31
2022-11-10T16:49:35.452Z,10.39
2022-11-10T16:50:35.446Z,10.38
2022-11-10T16:51:35.434Z,10.38
2022-11-10T16:52:35.518Z,10.30
2022-11-10T16:53:35.400Z,10.38
2022-11-10T16:54:35.391Z,10.31
2022-11-10T16:55:35.425Z,10.34
2022-11-10T16:56:35.387Z,10.35
2022-11-10T16:57:39.796Z,10.34
2022-11-10T16:58:35.347Z,10.42
2022-11-10T16:59:35.341Z,10.43
2022-11-10T17:00:35.334Z,10.57
2022-11-10T17:01:35.428Z,10.52
2022-11-10T17:02:35.310Z,10.49
2022-11-10T17:03:35.295Z,10.58
2022-11-10T17:04:35.280Z,10.61
2022-11-10T17:05:35.271Z,10.65
2022-11-10T17:06:35.319Z,10.70
2022-11-10T17:07:35.243Z,10.70
2022-11-10T17:08:35.345Z,10.68
2022-11-10T17:09:35.227Z,10.72
2022-11-10T17:10:35.216Z,10.83
2022-11-10T17:11:35.208Z,10.76
2022-11-10T17:12:35.218Z,10.97
2022-11-10T17:13:35.195Z,10.98
2022-11-10T17:14:35.185Z,10.90
2022-11-10T17:15:35.164Z,11.05
2022-11-10T17:16:35.157Z,11.09
2022-11-10T17:17:35.139Z,11.15
2022-11-10T17:18:35.161Z,11.16
2022-11-10T17:19:35.135Z,11.18
2022-11-10T17:20:35.119Z,11.16
2022-11-10T17:21:35.122Z,11.28
2022-11-10T17:22:35.091Z,11.22
2022-11-10T17:23:35.151Z,11.20
2022-11-10T17:24:35.190Z,11.23
2022-11-10T17:25:35.103Z,11.28
2022-11-10T17:26:35.048Z,11.38
2022-11-10T17:27:37.950Z,11.46
2022-11-10T17:28:35.057Z,11.46
2022-11-10T17:29:35.008Z,11.54
2022-11-10T17:30:35.016Z,11.59
2022-11-10T17:31:34.997Z,11.62
2022-11-10T17:33:03.025Z,11.62
2022-11-10T17:33:35.982Z,11.73
2022-11-10T17:34:34.961Z,11.74
2022-11-10T17:35:40.105Z,11.70
2022-11-10T17:36:35.945Z,11.74
2022-11-10T17:37:34.937Z,11.71
2022-11-10T17:38:34.923Z,11.70
2022-11-10T17:39:34.915Z,11.85
2022-11-10T17:40:35.012Z,11.84
2022-11-10T17:41:34.884Z,11.77
2022-11-10T17:42:34.876Z,11.87
2022-11-10T17:43:34.867Z,11.85
2022-11-10T17:44:34.855Z,11.88
2022-11-10T17:45:34.868Z,11.97
2022-11-10T17:46:34.838Z,12.07
2022-11-10T17:47:34.833Z,12.00
2022-11-10T17:48:34.819Z,12.04
2022-11-10T17:49:34.799Z,11.96
2022-11-10T17:50:34.802Z,11.99
2022-11-10T17:51:34.771Z,12.08
2022-11-10T17:52:34.760Z,12.07
2022-11-10T17:53:34.761Z,12.03
2022-11-10T17:54:34.741Z,12.03
2022-11-10T17:55:34.779Z,11.96
2022-11-10T17:56:34.836Z,12.07
2022-11-10T17:57:34.712Z,11.97
2022-11-10T17:58:34.717Z,12.04
2022-11-10T17:59:34.697Z,12.05
2022-11-10T18:00:34.695Z,12.04
2022-11-10T18:01:34.724Z,12.07
2022-11-10T18:02:34.663Z,12.10
2022-11-10T18:03:34.656Z,12.05
2022-11-10T18:04:34.640Z,12.04
2022-11-10T18:05:34.640Z,12.07
2022-11-10T18:06:43.769Z,12.00
2022-11-10T18:07:42.173Z,11.96
2022-11-10T18:08:34.704Z,11.95
2022-11-10T18:09:34.649Z,11.96
2022-11-10T18:10:34.592Z,12.04
2022-11-10T18:11:34.559Z,12.04
2022-11-10T18:12:34.703Z,12.00
2022-11-10T18:13:34.557Z,11.97
2022-11-10T18:14:34.541Z,12.04
2022-11-10T18:15:34.525Z,11.96
2022-11-10T18:16:34.534Z,11.96
2022-11-10T18:17:34.505Z,11.97
2022-11-10T18:18:34.528Z,12.00
2022-11-10T18:19:34.495Z,11.88
2022-11-10T18:20:42.060Z,12.03
2022-11-10T18:21:34.521Z,11.99
2022-11-10T18:22:34.490Z,12.00
2022-11-10T18:23:34.436Z,12.03
2022-11-10T18:24:34.428Z,12.08
2022-11-10T18:25:34.413Z,12.00
2022-11-10T18:26:34.411Z,12.07
2022-11-10T18:27:34.412Z,12.04
2022-11-10T18:28:34.493Z,12.11
2022-11-10T18:29:34.375Z,12.04
2022-11-10T18:30:35.397Z,12.08
2022-11-10T18:31:34.359Z,12.10
2022-11-10T18:32:34.345Z,12.11
2022-11-10T18:33:34.333Z,12.13
2022-11-10T18:34:34.320Z,12.10
2022-11-10T18:35:34.312Z,12.14
2022-11-10T18:36:34.332Z,12.08
2022-11-10T18:37:38.780Z,12.07
2022-11-10T18:38:34.273Z,12.07
2022-11-10T18:39:34.258Z,12.08
2022-11-10T18:40:34.246Z,12.04
2022-11-10T18:41:34.239Z,11.89
2022-11-10T18:42:34.249Z,11.99
2022-11-10T18:43:34.225Z,12.03
2022-11-10T18:44:34.344Z,12.11
2022-11-10T18:45:34.238Z,12.08
2022-11-10T18:46:34.191Z,12.15
2022-11-10T18:47:34.197Z,12.17
2022-11-10T18:48:37.263Z,12.11
2022-11-10T18:49:34.170Z,12.15
2022-11-10T18:50:34.161Z,12.13
2022-11-10T18:51:34.127Z,12.13
2022-11-10T18:52:34.128Z,12.11
2022-11-10T18:53:38.044Z,12.15
2022-11-10T18:54:34.112Z,12.10
2022-11-10T18:55:34.089Z,12.13
2022-11-10T18:56:34.098Z,12.04
2022-11-10T18:57:34.067Z,12.13
2022-11-10T18:58:34.094Z,12.18
2022-11-10T18:59:34.048Z,12.22
2022-11-10T19:00:34.156Z,12.23
2022-11-10T19:01:34.100Z,12.21
2022-11-10T19:02:34.023Z,12.21
2022-11-10T19:03:34.012Z,12.33
2022-11-10T19:04:34.005Z,12.35
2022-11-10T19:05:33.988Z,12.33
2022-11-10T19:06:34.028Z,12.33
2022-11-10T19:07:34.008Z,12.35
2022-11-10T19:08:33.951Z,12.35
2022-11-10T19:09:33.968Z,12.40
2022-11-10T19:10:42.567Z,12.29
2022-11-10T19:11:34.000Z,12.40
2022-11-10T19:12:33.959Z,12.30
2022-11-10T19:13:33.891Z,12.40
2022-11-10T19:14:34.005Z,12.36
2022-11-10T19:15:33.908Z,12.26
2022-11-10T19:16:33.993Z,12.30
2022-11-10T19:17:33.852Z,12.30
2022-11-10T19:18:33.829Z,12.36
2022-11-10T19:19:33.825Z,12.41
2022-11-10T19:20:33.849Z,12.32
2022-11-10T19:21:33.816Z,12.30
2022-11-10T19:22:33.802Z,12.33
2022-11-10T19:23:33.786Z,12.46
2022-11-10T19:24:53.771Z,12.29
2022-11-10T19:25:34.757Z,12.33
2022-11-10T19:26:33.758Z,12.33
2022-11-10T19:27:33.737Z,12.32
2022-11-10T19:28:33.734Z,12.43
2022-11-10T19:29:33.746Z,12.33
2022-11-10T19:30:33.704Z,12.33
2022-11-10T19:31:33.708Z,12.32
2022-11-10T19:32:34.488Z,12.22
2022-11-10T19:34:50.047Z,12.38
2022-11-10T19:35:49.955Z,12.35
2022-11-10T19:36:49.922Z,12.35
2022-11-10T19:37:49.921Z,12.35
2022-11-10T19:38:49.919Z,12.21
2022-11-10T19:39:49.936Z,12.21
2022-11-10T19:40:49.890Z,12.29
2022-11-10T19:41:49.891Z,12.25
2022-11-10T19:42:49.857Z,12.21
2022-11-10T19:43:49.844Z,12.21
2022-11-10T19:44:49.867Z,12.15
2022-11-10T19:45:49.820Z,12.14
2022-11-10T19:46:49.839Z,12.15
2022-11-10T19:47:49.920Z,12.10
2022-11-10T19:48:49.822Z,12.05
2022-11-10T19:49:49.791Z,12.10
2022-11-10T19:50:49.806Z,12.08
2022-11-10T19:51:49.752Z,12.10
2022-11-10T19:52:49.765Z,12.05
2022-11-10T19:53:49.729Z,12.05
2022-11-10T19:54:49.722Z,12.05
2022-11-10T19:55:49.719Z,12.05
2022-11-10T19:56:49.710Z,12.07
2022-11-10T19:57:49.720Z,12.07
2022-11-10T19:58:49.680Z,12.07
2022-11-10T19:59:49.673Z,12.04
2022-11-10T20:00:49.662Z,12.04
2022-11-10T20:01:49.697Z,12.08
2022-11-10T20:02:49.647Z,12.08
2022-11-10T20:03:49.750Z,12.10
2022-11-10T20:04:49.613Z,12.07
2022-11-10T20:05:49.610Z,12.14
2022-11-10T20:06:49.628Z,12.05
2022-11-10T20:07:49.599Z,12.08
2022-11-10T20:08:49.576Z,12.07
2022-11-10T20:09:49.576Z,12.07
2022-11-10T20:10:59.139Z,11.97
2022-11-10T20:11:57.131Z,11.96
2022-11-10T20:12:49.589Z,11.96
2022-11-10T20:13:57.135Z,11.97
2022-11-10T20:14:49.580Z,12.00
2022-11-10T20:15:49.525Z,11.96
2022-11-10T20:16:49.527Z,11.99
2022-11-10T20:17:49.474Z,11.97
2022-11-10T20:18:49.473Z,11.93
2022-11-10T20:19:49.568Z,11.89
2022-11-10T20:20:49.546Z,11.93
2022-11-10T20:21:49.448Z,11.96
2022-11-10T20:22:49.443Z,11.91
2022-11-10T20:23:49.442Z,11.95
2022-11-10T20:24:51.252Z,11.79
2022-11-10T20:25:49.405Z,11.85
2022-11-10T20:26:49.383Z,11.69
2022-11-10T20:27:49.379Z,11.71
2022-11-10T20:28:49.384Z,11.66
2022-11-10T20:29:49.365Z,11.51
2022-11-10T20:30:49.380Z,11.49
2022-11-10T20:31:49.327Z,11.41
2022-11-10T20:32:49.330Z,11.37
2022-11-10T20:33:49.336Z,11.31
2022-11-10T20:34:59.330Z,11.25
2022-11-10T20:35:49.344Z,11.20
2022-11-10T20:36:49.335Z,11.16
2022-11-10T20:37:49.271Z,11.13
2022-11-10T20:38:49.287Z,11.12
2022-11-10T20:39:49.261Z,11.05
2022-11-10T20:40:49.249Z,11.15
2022-11-10T20:41:49.239Z,11.13
2022-11-10T20:42:49.213Z,11.18
2022-11-10T20:43:49.246Z,11.16
2022-11-10T20:44:49.220Z,11.20
2022-11-10T20:45:49.182Z,11.23
2022-11-10T20:46:54.412Z,11.28
2022-11-10T20:47:50.219Z,11.25
2022-11-10T20:48:49.147Z,11.23
2022-11-10T20:49:49.154Z,11.28
2022-11-10T20:50:49.255Z,11.19
2022-11-10T20:51:49.152Z,11.27
2022-11-10T20:52:49.108Z,11.25
2022-11-10T20:53:49.100Z,11.20
2022-11-10T20:54:49.079Z,11.18
2022-11-10T20:55:53.855Z,11.18
2022-11-10T20:56:50.085Z,11.13
2022-11-10T20:57:49.061Z,11.16
2022-11-10T20:58:49.066Z,11.08
2022-11-10T20:59:49.037Z,11.08
2022-11-10T21:00:49.030Z,10.91
2022-11-10T21:01:49.037Z,11.04
2022-11-10T21:02:49.015Z,10.90
2022-11-10T21:03:49.062Z,10.87
2022-11-10T21:04:48.974Z,10.78
2022-11-10T21:05:48.988Z,10.64
2022-11-10T21:06:49.115Z,10.68
2022-11-10T21:07:48.978Z,10.60
2022-11-10T21:08:48.935Z,10.45
2022-11-10T21:09:57.755Z,10.43
2022-11-10T21:10:48.946Z,10.41
2022-11-10T21:11:48.943Z,10.41
2022-11-10T21:12:48.891Z,10.36
2022-11-10T21:13:48.930Z,10.41
2022-11-10T21:14:48.887Z,10.28
2022-11-10T21:15:48.888Z,10.27
2022-11-10T21:16:48.854Z,10.28
2022-11-10T21:17:48.835Z,10.24
2022-11-10T21:18:48.886Z,10.10
2022-11-10T21:19:48.819Z,10.10
2022-11-10T21:20:48.809Z,10.18
2022-11-10T21:21:48.795Z,10.12
2022-11-10T21:22:48.896Z,9.98
2022-11-10T21:23:48.807Z,9.91
2022-11-10T21:24:48.776Z,9.88
2022-11-10T21:25:48.752Z,9.91
2022-11-10T21:26:48.736Z,9.85
2022-11-10T21:27:48.729Z,9.78
2022-11-10T21:28:48.729Z,9.81
2022-11-10T21:29:48.724Z,9.73
2022-11-10T21:30:48.704Z,9.73
2022-11-10T21:31:48.691Z,9.66
2022-11-10T21:32:48.700Z,9.62
2022-11-10T21:33:48.672Z,9.57
2022-11-10T21:34:48.670Z,9.50
2022-11-10T21:35:48.647Z,9.47
2022-11-10T21:36:48.649Z,9.47
2022-11-10T21:37:48.637Z,9.34
2022-11-10T21:38:48.735Z,9.40
2022-11-10T21:39:48.606Z,9.30
2022-11-10T21:40:48.632Z,9.29
2022-11-10T21:41:48.581Z,9.33
2022-11-10T21:42:48.576Z,9.24
2022-11-10T21:43:48.591Z,9.26
2022-11-10T21:44:48.561Z,9.24
2022-11-10T21:45:48.555Z,9.29
2022-11-10T21:46:48.535Z,9.16
2022-11-10T21:47:48.545Z,9.18
2022-11-10T21:48:48.511Z,9.24
2022-11-10T21:49:48.495Z,9.23
2022-11-10T21:50:48.522Z,9.26
2022-11-10T21:51:48.470Z,9.15
2022-11-10T21:52:48.499Z,9.16
2022-11-10T21:53:48.469Z,9.22
2022-11-10T21:54:48.565Z,9.04
2022-11-10T21:55:48.441Z,9.11
2022-11-10T21:56:48.440Z,9.04
2022-11-10T21:57:48.415Z,9.14
2022-11-10T21:58:48.446Z,9.06
2022-11-10T21:59:48.431Z,9.01
2022-11-10T22:00:48.386Z,9.09
2022-11-10T22:01:48.488Z,9.04
2022-11-10T22:02:48.366Z,9.11
2022-11-10T22:03:48.357Z,9.09
2022-11-10T22:04:48.340Z,9.01
2022-11-10T22:05:48.380Z,9.06
2022-11-10T22:06:48.366Z,9.15
2022-11-10T22:07:48.320Z,9.01
2022-11-10T22:08:48.303Z,9.06
2022-11-10T22:09:48.288Z,9.11
2022-11-10T22:10:48.395Z,9.03
2022-11-10T22:11:48.256Z,9.16
2022-11-10T22:12:48.288Z,9.19
2022-11-10T22:13:48.237Z,9.26
2022-11-10T22:14:48.234Z,9.22
2022-11-10T22:15:48.213Z,9.15
2022-11-10T22:16:55.854Z,9.15
2022-11-10T22:17:56.859Z,9.16
2022-11-10T22:18:48.287Z,9.19
2022-11-10T22:19:48.228Z,9.26
2022-11-10T22:20:48.165Z,9.34
2022-11-10T22:21:48.213Z,9.29
2022-11-10T22:22:48.172Z,9.37
2022-11-10T22:23:48.148Z,9.37
2022-11-10T22:24:48.143Z,9.40
2022-11-10T22:25:48.107Z,9.41
2022-11-10T22:26:48.213Z,9.44
2022-11-10T22:27:48.089Z,9.40
2022-11-10T22:28:48.103Z,9.47
2022-11-10T22:29:55.637Z,9.44
2022-11-10T22:30:55.681Z,9.48
2022-11-10T22:32:58.447Z,9.62
2022-11-10T22:33:58.427Z,9.57
2022-11-10T22:35:08.074Z,9.59
2022-11-10T22:35:58.408Z,9.54
2022-11-10T22:36:58.364Z,9.48
2022-11-10T22:37:58.346Z,9.48
2022-11-10T22:39:03.174Z,9.51
2022-11-10T22:39:59.360Z,9.51
2022-11-10T22:40:58.285Z,9.48
2022-11-10T22:41:58.389Z,9.37
2022-11-10T22:42:58.267Z,9.47
2022-11-10T22:43:58.256Z,9.30
2022-11-10T22:44:58.247Z,9.37
2022-11-10T22:45:58.250Z,9.40
2022-11-10T22:46:58.240Z,9.40
2022-11-10T22:47:58.215Z,9.42
2022-11-10T22:48:58.199Z,9.36
2022-11-10T22:49:58.189Z,9.41
2022-11-10T22:50:58.211Z,9.42
2022-11-10T22:51:58.185Z,9.42
2022-11-10T22:53:05.785Z,9.33
2022-11-10T22:53:58.223Z,9.40
2022-11-10T22:54:58.196Z,9.33
2022-11-10T22:55:58.151Z,9.32
2022-11-10T22:56:58.132Z,9.30
2022-11-10T22:57:58.235Z,9.24
2022-11-10T22:59:00.072Z,9.27
2022-11-10T22:59:58.087Z,9.24
2022-11-10T23:00:58.091Z,9.24
2022-11-10T23:01:58.137Z,9.18
2022-11-10T23:02:58.058Z,9.19
2022-11-10T23:03:58.053Z,9.12
2022-11-10T23:04:58.036Z,9.06
2022-11-10T23:05:58.034Z,9.11
2022-11-10T23:06:58.082Z,8.95
2022-11-10T23:07:58.004Z,8.92
2022-11-10T23:08:57.999Z,8.90
2022-11-10T23:09:58.000Z,8.89
2022-11-10T23:10:57.987Z,8.95
2022-11-10T23:11:57.972Z,8.93
2022-11-10T23:12:57.948Z,8.93
2022-11-10T23:13:58.058Z,8.92
2022-11-10T23:14:57.944Z,8.90
2022-11-10T23:15:57.917Z,8.92
2022-11-10T23:16:57.914Z,8.88
2022-11-10T23:18:01.184Z,8.88
2022-11-10T23:18:58.906Z,8.99
2022-11-10T23:19:57.876Z,8.92
2022-11-10T23:20:57.873Z,8.90
2022-11-10T23:22:05.492Z,8.85
2022-11-10T23:22:57.902Z,8.92
2022-11-10T23:24:06.750Z,8.93
2022-11-10T23:25:05.507Z,8.85
2022-11-10T23:28:18.616Z,8.96
2022-11-10T23:29:27.293Z,8.98
2022-11-10T23:30:26.190Z,8.96
2022-11-10T23:31:26.131Z,8.96
2022-11-10T23:32:27.140Z,9.01
2022-11-10T23:33:18.532Z,9.08
2022-11-10T23:34:18.498Z,9.01
2022-11-10T23:35:18.467Z,9.11
2022-11-10T23:36:25.988Z,8.96
2022-11-10T23:37:18.460Z,8.95
2022-11-10T23:38:25.976Z,8.90
2022-11-10T23:39:18.437Z,8.86
2022-11-10T23:40:27.420Z,8.78
2022-11-10T23:41:26.978Z,8.85
2022-11-10T23:43:28.779Z,8.89
2022-11-10T23:44:36.338Z,8.71
2022-11-10T23:46:05.450Z,8.80
2022-11-10T23:46:36.288Z,8.67
2022-11-10T23:48:39.101Z,8.78
2022-11-10T23:49:39.057Z,8.65
2022-11-10T23:50:38.983Z,8.74
2022-11-10T23:51:46.536Z,8.65
2022-11-10T23:52:39.002Z,8.65
2022-11-10T23:53:46.524Z,8.68
2022-11-10T23:54:39.039Z,8.68
2022-11-10T23:55:47.759Z,8.70
2022-11-10T23:56:48.814Z,8.62
2022-11-10T23:57:46.515Z,8.67
2022-11-10T23:58:38.966Z,8.68
2022-11-10T23:59:38.939Z,8.63
